createdAt,value
2016-05-11T00:00:02.525Z,1000.2
2016-05-11T00:01:02.496Z,1000.2
2016-05-11T00:02:02.483Z,1000.2
2016-05-11T00:03:02.470Z,1000.18
2016-05-11T00:04:02.442Z,1000.17
2016-05-11T00:05:02.428Z,1000.21
2016-05-11T00:06:02.416Z,1000.2
2016-05-11T00:07:02.387Z,1000.21
2016-05-11T00:08:02.374Z,1000.21
2016-05-11T00:09:02.362Z,1000.24
2016-05-11T00:10:02.349Z,1000.25
2016-05-11T00:11:02.319Z,1000.24
2016-05-11T00:12:02.308Z,1000.22
2016-05-11T00:13:02.294Z,1000.22
2016-05-11T00:14:02.265Z,1000.16
2016-05-11T00:15:02.253Z,1000.22
2016-05-11T00:16:02.224Z,1000.23
2016-05-11T00:17:02.211Z,1000.22
2016-05-11T00:18:02.198Z,1000.24
2016-05-11T00:19:02.185Z,1000.26
2016-05-11T00:20:02.157Z,1000.25
2016-05-11T00:21:02.143Z,1000.25
2016-05-11T00:22:02.131Z,1000.25
2016-05-11T00:23:02.118Z,1000.25
2016-05-11T00:24:02.089Z,1000.3
2016-05-11T00:25:02.077Z,1000.29
2016-05-11T00:26:02.048Z,1000.3
2016-05-11T00:27:02.035Z,1000.32
2016-05-11T00:28:02.023Z,1000.29
2016-05-11T00:29:01.993Z,1000.31
2016-05-11T00:30:02.012Z,1000.31
2016-05-11T00:31:01.967Z,1000.27
2016-05-11T00:32:01.954Z,1000.28
2016-05-11T00:33:01.926Z,1000.26
2016-05-11T00:34:01.914Z,1000.29
2016-05-11T00:35:01.900Z,1000.25
2016-05-11T00:36:01.872Z,1000.25
2016-05-11T00:37:01.859Z,1000.23
2016-05-11T00:38:01.830Z,1000.19
2016-05-11T00:39:01.817Z,1000.22
2016-05-11T00:40:01.805Z,1000.19
2016-05-11T00:41:01.791Z,1000.19
2016-05-11T00:42:01.763Z,1000.22
2016-05-11T00:43:01.749Z,1000.2
2016-05-11T00:44:01.722Z,1000.2
2016-05-11T00:45:01.708Z,1000.22
2016-05-11T00:46:01.696Z,1000.24
2016-05-11T00:47:01.667Z,1000.24
2016-05-11T00:48:01.654Z,1000.25
2016-05-11T00:49:01.641Z,1000.24
2016-05-11T00:50:01.628Z,1000.27
2016-05-11T00:51:01.599Z,1000.24
2016-05-11T00:52:01.587Z,1000.23
2016-05-11T00:53:01.557Z,1000.2
2016-05-11T00:54:01.545Z,1000.21
2016-05-11T00:55:01.532Z,1000.19
2016-05-11T00:56:01.504Z,1000.19
2016-05-11T00:57:01.490Z,1000.19
2016-05-11T00:58:01.478Z,1000.21
2016-05-11T00:59:01.449Z,1000.2
2016-05-11T01:00:01.451Z,1000.22
2016-05-11T01:01:01.423Z,1000.18
2016-05-11T01:02:01.409Z,1000.19
2016-05-11T01:03:01.397Z,1000.16
2016-05-11T01:04:01.369Z,1000.19
2016-05-11T01:05:01.340Z,1000.2
2016-05-11T01:06:01.328Z,1000.22
2016-05-11T01:07:01.314Z,1000.18
2016-05-11T01:08:01.301Z,1000.2
2016-05-11T01:09:01.272Z,1000.16
2016-05-11T01:10:01.260Z,1000.12
2016-05-11T01:11:01.231Z,1000.14
2016-05-11T01:12:01.219Z,1000.13
2016-05-11T01:13:01.206Z,1000.15
2016-05-11T01:14:01.192Z,1000.16
2016-05-11T01:15:01.164Z,1000.19
2016-05-11T01:16:01.151Z,1000.17
2016-05-11T01:17:01.123Z,1000.16
2016-05-11T01:18:01.109Z,1000.16
2016-05-11T01:19:01.096Z,1000.18
2016-05-11T01:20:01.068Z,1000.18
2016-05-11T01:21:01.055Z,1000.15
2016-05-11T01:22:01.043Z,1000.09
2016-05-11T01:23:01.029Z,1000.13
2016-05-11T01:24:01.001Z,1000.12
2016-05-11T01:25:00.987Z,1000.15
2016-05-11T01:26:00.960Z,1000.13
2016-05-11T01:27:00.946Z,1000.1
2016-05-11T01:28:00.934Z,1000.16
2016-05-11T01:29:00.905Z,1000.14
2016-05-11T01:30:00.892Z,1000.1
2016-05-11T01:31:00.862Z,1000.12
2016-05-11T01:32:00.850Z,1000.1
2016-05-11T01:33:00.838Z,1000.09
2016-05-11T01:34:00.825Z,1000.12
2016-05-11T01:35:00.796Z,1000.07
2016-05-11T01:36:00.783Z,1000.11
2016-05-11T01:37:00.770Z,1000.09
2016-05-11T01:38:00.741Z,1000.11
2016-05-11T01:39:00.729Z,1000.08
2016-05-11T01:40:00.700Z,1000.11
2016-05-11T01:41:00.686Z,1000.1
2016-05-11T01:42:00.675Z,1000.07
2016-05-11T01:43:00.645Z,1000.08
2016-05-11T01:44:00.633Z,1000.07
2016-05-11T01:45:00.620Z,1000.08
2016-05-11T01:46:00.591Z,1000.04
2016-05-11T01:47:00.577Z,1000.03
2016-05-11T01:48:00.565Z,1000.04
2016-05-11T01:49:00.553Z,1000.04
2016-05-11T01:50:00.524Z,1000.03
2016-05-11T01:51:00.511Z,1000.03
2016-05-11T01:52:00.482Z,1000.04
2016-05-11T01:53:00.469Z,1000.03
2016-05-11T01:54:00.441Z,1000.01
2016-05-11T01:55:00.427Z,1000.05
2016-05-11T01:56:00.415Z,1000.06
2016-05-11T01:57:00.387Z,1000
2016-05-11T01:58:00.374Z,1000.07
2016-05-11T01:59:00.360Z,1000.04
2016-05-11T02:00:00.332Z,1000.03
2016-05-11T02:01:00.318Z,1000.02
2016-05-11T02:02:00.306Z,1000.02
2016-05-11T02:03:00.277Z,1000.02
2016-05-11T02:04:00.265Z,1000.02
2016-05-11T02:05:00.252Z,999.98
2016-05-11T02:06:00.223Z,1000.03
2016-05-11T02:07:00.209Z,999.99
2016-05-11T02:08:00.181Z,999.96
2016-05-11T02:09:00.169Z,999.99
2016-05-11T02:10:00.155Z,999.96
2016-05-11T02:11:00.127Z,1000
2016-05-11T02:12:00.161Z,1000.03
2016-05-11T02:13:00.101Z,1000
2016-05-11T02:14:00.072Z,1000.01
2016-05-11T02:15:00.060Z,1000.01
2016-05-11T02:16:00.047Z,999.99
2016-05-11T02:17:00.019Z,999.98
2016-05-11T02:18:00.005Z,999.98
2016-05-11T02:18:59.992Z,999.95
2016-05-11T02:19:59.964Z,999.96
2016-05-11T02:20:59.951Z,999.93
2016-05-11T02:21:59.938Z,999.96
2016-05-11T02:22:59.910Z,999.96
2016-05-11T02:23:59.896Z,999.96
2016-05-11T02:24:59.868Z,999.95
2016-05-11T02:25:59.870Z,999.92
2016-05-11T02:26:59.842Z,999.93
2016-05-11T02:27:59.813Z,999.97
2016-05-11T02:28:59.801Z,999.99
2016-05-11T02:29:59.787Z,1000.01
2016-05-11T02:30:59.759Z,1000
2016-05-11T02:31:59.746Z,1000
2016-05-11T02:32:59.780Z,999.96
2016-05-11T02:33:59.704Z,999.94
2016-05-11T02:34:59.692Z,999.92
2016-05-11T02:35:59.678Z,999.9
2016-05-11T02:36:59.650Z,999.86
2016-05-11T02:37:59.637Z,999.85
2016-05-11T02:38:59.625Z,999.8
2016-05-11T02:39:59.596Z,999.79
2016-05-11T02:40:59.567Z,999.78
2016-05-11T02:41:59.570Z,999.79
2016-05-11T02:42:59.541Z,999.84
2016-05-11T02:43:59.528Z,999.88
2016-05-11T02:44:59.499Z,999.84
2016-05-11T02:45:59.487Z,999.85
2016-05-11T02:46:59.474Z,999.85
2016-05-11T02:47:59.445Z,999.87
2016-05-11T02:48:59.433Z,999.86
2016-05-11T02:49:59.419Z,999.82
2016-05-11T02:50:59.391Z,999.81
2016-05-11T02:51:59.378Z,999.81
2016-05-11T02:52:59.349Z,999.8
2016-05-11T02:53:59.336Z,999.81
2016-05-11T02:54:59.324Z,999.81
2016-05-11T02:55:59.295Z,999.84
2016-05-11T02:56:59.282Z,999.9
2016-05-11T02:57:59.268Z,999.86
2016-05-11T02:58:59.241Z,999.87
2016-05-11T02:59:59.228Z,999.83
2016-05-11T03:00:59.199Z,999.82
2016-05-11T03:01:59.186Z,999.77
2016-05-11T03:02:59.173Z,999.74
2016-05-11T03:03:59.144Z,999.79
2016-05-11T03:04:59.131Z,999.75
2016-05-11T03:05:59.119Z,999.79
2016-05-11T03:06:59.090Z,999.8
2016-05-11T03:07:59.078Z,999.81
2016-05-11T03:08:59.048Z,999.86
2016-05-11T03:09:59.036Z,999.84
2016-05-11T03:10:59.022Z,999.87
2016-05-11T03:11:58.994Z,999.87
2016-05-11T03:12:58.981Z,999.88
2016-05-11T03:13:58.969Z,999.89
2016-05-11T03:14:58.955Z,999.9
2016-05-11T03:15:58.927Z,999.96
2016-05-11T03:16:58.914Z,999.99
2016-05-11T03:17:58.886Z,999.95
2016-05-11T03:18:58.872Z,999.98
2016-05-11T03:19:58.844Z,999.98
2016-05-11T03:20:58.830Z,999.95
2016-05-11T03:21:58.818Z,999.91
2016-05-11T03:22:58.789Z,999.85
2016-05-11T03:23:58.776Z,999.89
2016-05-11T03:24:58.764Z,999.89
2016-05-11T03:25:58.735Z,999.83
2016-05-11T03:26:58.722Z,999.82
2016-05-11T03:27:58.694Z,999.8
2016-05-11T03:28:58.680Z,999.76
2016-05-11T03:29:58.667Z,999.76
2016-05-11T03:30:58.646Z,999.76
2016-05-11T03:31:58.672Z,999.78
2016-05-11T03:32:58.714Z,999.78
2016-05-11T03:33:58.710Z,999.8
2016-05-11T03:34:58.736Z,999.8
2016-05-11T03:35:58.743Z,999.85
2016-05-11T03:36:58.745Z,999.83
2016-05-11T03:37:58.730Z,999.81
2016-05-11T03:38:58.732Z,999.76
2016-05-11T03:39:58.733Z,999.78
2016-05-11T03:40:58.732Z,999.77
2016-05-11T03:41:58.709Z,999.78
2016-05-11T03:42:58.701Z,999.75
2016-05-11T03:43:58.677Z,999.77
2016-05-11T03:44:58.670Z,999.79
2016-05-11T03:45:58.645Z,999.79
2016-05-11T03:46:58.635Z,999.81
2016-05-11T03:47:58.639Z,999.83
2016-05-11T03:48:58.612Z,999.81
2016-05-11T03:49:58.585Z,999.84
2016-05-11T03:50:58.575Z,999.83
2016-05-11T03:51:58.545Z,999.85
2016-05-11T03:52:58.534Z,999.83
2016-05-11T03:53:58.521Z,999.83
2016-05-11T03:54:58.493Z,999.84
2016-05-11T03:55:58.480Z,999.8
2016-05-11T03:56:58.452Z,999.83
2016-05-11T03:57:58.439Z,999.85
2016-05-11T03:58:58.427Z,999.85
2016-05-11T03:59:58.399Z,999.85
2016-05-11T04:00:58.387Z,999.87
2016-05-11T04:01:58.358Z,999.86
2016-05-11T04:02:58.345Z,999.87
2016-05-11T04:03:58.332Z,999.9
2016-05-11T04:04:58.319Z,999.9
2016-05-11T04:05:58.290Z,999.88
2016-05-11T04:06:58.293Z,999.83
2016-05-11T04:07:58.265Z,999.81
2016-05-11T04:08:58.236Z,999.82
2016-05-11T04:09:58.208Z,999.86
2016-05-11T04:10:58.194Z,999.84
2016-05-11T04:11:58.181Z,999.84
2016-05-11T04:12:58.168Z,999.86
2016-05-11T04:13:58.359Z,999.87
2016-05-11T04:14:58.127Z,999.86
2016-05-11T04:15:58.114Z,999.89
2016-05-11T04:16:58.085Z,999.86
2016-05-11T04:17:58.073Z,999.93
2016-05-11T04:18:58.044Z,999.9
2016-05-11T04:19:58.031Z,999.92
2016-05-11T04:20:58.018Z,999.91
2016-05-11T04:21:57.990Z,999.94
2016-05-11T04:22:57.976Z,999.9
2016-05-11T04:23:57.964Z,999.92
2016-05-11T04:24:57.935Z,999.91
2016-05-11T04:25:57.923Z,999.9
2016-05-11T04:26:57.894Z,999.9
2016-05-11T04:27:57.881Z,999.88
2016-05-11T04:28:57.868Z,999.87
2016-05-11T04:29:57.839Z,999.86
2016-05-11T04:30:57.826Z,999.87
2016-05-11T04:31:57.813Z,999.85
2016-05-11T04:32:57.785Z,999.89
2016-05-11T04:33:57.772Z,999.83
2016-05-11T04:34:57.758Z,999.84
2016-05-11T04:35:57.730Z,999.86
2016-05-11T04:36:57.717Z,999.84
2016-05-11T04:37:57.704Z,999.85
2016-05-11T04:38:57.676Z,999.89
2016-05-11T04:39:57.663Z,999.85
2016-05-11T04:40:57.650Z,999.86
2016-05-11T04:41:57.638Z,999.86
2016-05-11T04:42:57.608Z,999.83
2016-05-11T04:43:57.596Z,999.85
2016-05-11T04:44:57.567Z,999.85
2016-05-11T04:45:57.554Z,999.83
2016-05-11T04:46:57.541Z,999.81
2016-05-11T04:47:57.513Z,999.84
2016-05-11T04:48:57.499Z,999.83
2016-05-11T04:49:57.487Z,999.79
2016-05-11T04:50:57.458Z,999.82
2016-05-11T04:51:57.445Z,999.81
2016-05-11T04:52:57.417Z,999.85
2016-05-11T04:53:57.420Z,999.83
2016-05-11T04:54:57.390Z,999.87
2016-05-11T04:55:57.363Z,999.88
2016-05-11T04:56:57.348Z,999.87
2016-05-11T04:57:57.337Z,999.89
2016-05-11T04:58:57.323Z,999.85
2016-05-11T04:59:57.295Z,999.84
2016-05-11T05:00:57.281Z,999.84
2016-05-11T05:01:57.270Z,999.81
2016-05-11T05:02:57.240Z,999.82
2016-05-11T05:03:57.228Z,999.8
2016-05-11T05:04:57.215Z,999.77
2016-05-11T05:05:57.186Z,999.78
2016-05-11T05:06:57.173Z,999.75
2016-05-11T05:07:57.160Z,999.72
2016-05-11T05:08:57.147Z,999.74
2016-05-11T05:09:57.119Z,999.72
2016-05-11T05:10:57.106Z,999.76
2016-05-11T05:11:57.093Z,999.73
2016-05-11T05:12:57.064Z,999.7
2016-05-11T05:13:57.052Z,999.72
2016-05-11T05:14:57.038Z,999.73
2016-05-11T05:15:57.494Z,999.69
2016-05-11T05:16:56.997Z,999.69
2016-05-11T05:17:56.984Z,999.72
2016-05-11T05:18:56.987Z,999.72
2016-05-11T05:19:56.943Z,999.7
2016-05-11T05:20:56.929Z,999.71
2016-05-11T05:21:56.916Z,999.69
2016-05-11T05:22:56.888Z,999.7
2016-05-11T05:23:56.875Z,999.69
2016-05-11T05:24:56.863Z,999.69
2016-05-11T05:25:56.833Z,999.69
2016-05-11T05:26:56.821Z,999.68
2016-05-11T05:27:56.807Z,999.69
2016-05-11T05:28:56.795Z,999.7
2016-05-11T05:29:56.766Z,999.68
2016-05-11T05:30:56.754Z,999.71
2016-05-11T05:31:56.740Z,999.71
2016-05-11T05:32:56.728Z,999.73
2016-05-11T05:33:56.699Z,999.76
2016-05-11T05:34:56.686Z,999.78
2016-05-11T05:35:56.658Z,999.75
2016-05-11T05:36:56.644Z,999.73
2016-05-11T05:37:56.631Z,999.73
2016-05-11T05:38:56.619Z,999.69
2016-05-11T05:39:56.590Z,999.69
2016-05-11T05:40:56.577Z,999.71
2016-05-11T05:41:56.564Z,999.7
2016-05-11T05:42:56.552Z,999.7
2016-05-11T05:43:56.522Z,999.67
2016-05-11T05:44:56.510Z,999.72
2016-05-11T05:45:56.497Z,999.7
2016-05-11T05:46:56.483Z,999.65
2016-05-11T05:47:56.455Z,999.63
2016-05-11T05:48:56.443Z,999.6
2016-05-11T05:49:56.430Z,999.64
2016-05-11T05:50:56.416Z,999.63
2016-05-11T05:51:56.388Z,999.62
2016-05-11T05:52:56.374Z,999.6
2016-05-11T05:53:56.362Z,999.65
2016-05-11T05:54:56.349Z,999.63
2016-05-11T05:55:56.320Z,999.63
2016-05-11T05:56:56.307Z,999.63
2016-05-11T05:57:56.295Z,999.59
2016-05-11T05:58:56.281Z,999.58
2016-05-11T05:59:56.253Z,999.59
2016-05-11T06:00:56.287Z,999.64
2016-05-11T06:01:56.227Z,999.57
2016-05-11T06:02:56.215Z,999.61
2016-05-11T06:03:56.201Z,999.6
2016-05-11T06:04:56.173Z,999.61
2016-05-11T06:05:56.159Z,999.62
2016-05-11T06:06:56.147Z,999.6
2016-05-11T06:07:56.134Z,999.63
2016-05-11T06:08:56.105Z,999.63
2016-05-11T06:09:56.093Z,999.66
2016-05-11T06:10:56.080Z,999.63
2016-05-11T06:11:56.066Z,999.6
2016-05-11T06:12:56.054Z,999.61
2016-05-11T06:13:56.025Z,999.59
2016-05-11T06:14:56.013Z,999.54
2016-05-11T06:15:56.452Z,999.58
2016-05-11T06:16:55.971Z,999.6
2016-05-11T06:17:55.958Z,999.59
2016-05-11T06:18:55.944Z,999.57
2016-05-11T06:20:02.730Z,999.62
2016-05-11T06:20:57.184Z,999.66
2016-05-11T06:21:56.249Z,999.65
2016-05-11T06:22:55.878Z,999.71
2016-05-11T06:23:55.912Z,999.69
2016-05-11T06:24:55.851Z,999.68
2016-05-11T06:25:56.135Z,999.66
2016-05-11T06:26:55.826Z,999.66
2016-05-11T06:27:57.079Z,999.65
2016-05-11T06:28:55.972Z,999.71
2016-05-11T06:29:55.803Z,999.7
2016-05-11T06:30:55.790Z,999.69
2016-05-11T06:31:55.745Z,999.67
2016-05-11T06:32:55.733Z,999.69
2016-05-11T06:33:55.704Z,999.7
2016-05-11T06:34:55.692Z,999.71
2016-05-11T06:35:55.679Z,999.69
2016-05-11T06:36:55.665Z,999.7
2016-05-11T06:37:55.653Z,999.7
2016-05-11T06:38:55.639Z,999.72
2016-05-11T06:39:55.611Z,999.75
2016-05-11T06:40:55.598Z,999.71
2016-05-11T06:41:55.585Z,999.72
2016-05-11T06:42:55.572Z,999.76
2016-05-11T06:43:55.558Z,999.79
2016-05-11T06:44:55.546Z,999.78
2016-05-11T06:45:55.518Z,999.72
2016-05-11T06:46:55.505Z,999.75
2016-05-11T06:47:55.492Z,999.72
2016-05-11T06:48:55.479Z,999.74
2016-05-11T06:49:55.466Z,999.79
2016-05-11T06:50:55.453Z,999.79
2016-05-11T06:51:55.440Z,999.82
2016-05-11T06:52:55.443Z,999.84
2016-05-11T06:53:55.414Z,999.8
2016-05-11T06:54:55.401Z,999.81
2016-05-11T06:55:55.373Z,999.82
2016-05-11T06:56:55.376Z,999.85
2016-05-11T06:57:55.346Z,999.87
2016-05-11T06:58:55.349Z,999.86
2016-05-11T06:59:55.321Z,999.9
2016-05-11T07:00:55.308Z,999.88
2016-05-11T07:02:00.827Z,999.89
2016-05-11T07:02:55.281Z,999.94
2016-05-11T07:03:55.270Z,999.92
2016-05-11T07:04:55.257Z,999.96
2016-05-11T07:05:55.243Z,999.94
2016-05-11T07:06:55.231Z,1000.01
2016-05-11T07:07:55.233Z,999.99
2016-05-11T07:08:55.204Z,1000.03
2016-05-11T07:09:55.192Z,1000.05
2016-05-11T07:10:55.178Z,1000.07
2016-05-11T07:11:55.166Z,1000.04
2016-05-11T07:12:55.152Z,1000.07
2016-05-11T07:13:55.140Z,1000.02
2016-05-11T07:14:55.127Z,1000
2016-05-11T07:15:55.114Z,999.99
2016-05-11T07:16:55.116Z,999.98
2016-05-11T07:17:55.103Z,999.98
2016-05-11T07:18:55.091Z,999.99
2016-05-11T07:19:55.077Z,999.97
2016-05-11T07:20:55.080Z,1000.02
2016-05-11T07:21:55.068Z,999.97
2016-05-11T07:22:55.054Z,999.99
2016-05-11T07:23:55.041Z,999.98
2016-05-11T07:24:55.044Z,1000.01
2016-05-11T07:25:55.031Z,999.96
2016-05-11T07:26:55.019Z,999.97
2016-05-11T07:27:55.022Z,999.97
2016-05-11T07:28:55.008Z,1000.01
2016-05-11T07:29:54.995Z,1000
2016-05-11T07:30:54.998Z,1000.01
2016-05-11T07:31:54.985Z,999.97
2016-05-11T07:32:54.987Z,1000
2016-05-11T07:33:54.975Z,999.98
2016-05-11T07:34:54.978Z,999.93
2016-05-11T07:35:54.965Z,999.9
2016-05-11T07:36:54.983Z,999.93
2016-05-11T07:37:54.954Z,999.92
2016-05-11T07:38:54.957Z,999.85
2016-05-11T07:39:54.945Z,999.86
2016-05-11T07:40:54.947Z,999.8
2016-05-11T07:41:54.934Z,999.84
2016-05-11T07:42:55.875Z,999.82
2016-05-11T07:43:56.361Z,999.86
2016-05-11T07:44:56.239Z,999.85
2016-05-11T07:45:56.304Z,999.82
2016-05-11T07:46:56.261Z,999.89
2016-05-11T07:47:56.075Z,999.87
2016-05-11T07:48:54.906Z,999.87
2016-05-11T07:49:56.221Z,999.87
2016-05-11T07:50:56.177Z,999.93
2016-05-11T07:51:56.288Z,999.87
2016-05-11T07:52:56.338Z,999.84
2016-05-11T07:53:56.405Z,999.86
2016-05-11T07:54:56.235Z,999.93
2016-05-11T07:55:56.285Z,999.89
2016-05-11T07:56:56.115Z,999.87
2016-05-11T07:57:56.226Z,999.89
2016-05-11T07:58:56.152Z,999.88
2016-05-11T07:59:55.874Z,999.9
2016-05-11T08:00:56.126Z,999.9
2016-05-11T08:01:56.129Z,999.91
2016-05-11T08:02:56.287Z,999.92
2016-05-11T08:03:56.290Z,999.93
2016-05-11T08:04:56.246Z,999.91
2016-05-11T08:05:56.296Z,999.87
2016-05-11T08:06:56.235Z,999.89
2016-05-11T08:07:56.457Z,999.88
2016-05-11T08:08:55.865Z,999.89
2016-05-11T08:09:56.134Z,999.87
2016-05-11T08:10:56.231Z,999.88
2016-05-11T08:11:54.828Z,999.85
2016-05-11T08:12:54.814Z,999.86
2016-05-11T08:13:55.333Z,999.84
2016-05-11T08:14:56.242Z,999.88
2016-05-11T08:15:55.494Z,999.89
2016-05-11T08:16:56.309Z,999.88
2016-05-11T08:17:54.812Z,999.87
2016-05-11T08:18:54.799Z,999.87
2016-05-11T08:19:54.802Z,999.9
2016-05-11T08:20:54.789Z,999.9
2016-05-11T08:21:54.791Z,999.91
2016-05-11T08:22:54.794Z,999.9
2016-05-11T08:23:54.781Z,999.94
2016-05-11T08:24:54.784Z,999.92
2016-05-11T08:25:54.786Z,999.86
2016-05-11T08:26:54.774Z,999.86
2016-05-11T08:27:54.777Z,999.91
2016-05-11T08:28:54.779Z,999.83
2016-05-11T08:29:54.766Z,999.92
2016-05-11T08:30:54.879Z,999.89
2016-05-11T08:31:54.771Z,999.9
2016-05-11T08:32:54.759Z,999.88
2016-05-11T08:33:54.762Z,999.91
2016-05-11T08:34:54.748Z,999.88
2016-05-11T08:35:54.751Z,999.87
2016-05-11T08:36:54.754Z,999.83
2016-05-11T08:37:54.756Z,999.83
2016-05-11T08:38:54.743Z,999.81
2016-05-11T08:39:54.746Z,999.82
2016-05-11T08:40:54.749Z,999.78
2016-05-11T08:41:54.736Z,999.72
2016-05-11T08:42:54.739Z,999.79
2016-05-11T08:43:54.742Z,999.76
2016-05-11T08:44:54.728Z,999.74
2016-05-11T08:45:55.340Z,999.79
2016-05-11T08:46:54.718Z,999.72
2016-05-11T08:47:54.720Z,999.74
2016-05-11T08:48:54.724Z,999.68
2016-05-11T08:49:54.711Z,999.7
2016-05-11T08:50:54.713Z,999.63
2016-05-11T08:51:54.700Z,999.64
2016-05-11T08:52:54.703Z,999.62
2016-05-11T08:53:54.705Z,999.63
2016-05-11T08:54:54.708Z,999.68
2016-05-11T08:55:54.680Z,999.6
2016-05-11T08:56:54.683Z,999.6
2016-05-11T08:57:54.669Z,999.61
2016-05-11T08:58:54.672Z,999.55
2016-05-11T08:59:54.691Z,999.57
2016-05-11T09:00:54.662Z,999.56
2016-05-11T09:01:54.649Z,999.55
2016-05-11T09:02:54.636Z,999.57
2016-05-11T09:03:54.624Z,999.56
2016-05-11T09:04:54.626Z,999.53
2016-05-11T09:05:54.612Z,999.5
2016-05-11T09:06:54.601Z,999.57
2016-05-11T09:07:54.587Z,999.51
2016-05-11T09:08:54.589Z,999.52
2016-05-11T09:09:54.577Z,999.47
2016-05-11T09:10:54.564Z,999.42
2016-05-11T09:11:54.551Z,999.39
2016-05-11T09:12:54.554Z,999.41
2016-05-11T09:13:54.540Z,999.38
2016-05-11T09:14:54.528Z,999.42
2016-05-11T09:15:54.514Z,999.46
2016-05-11T09:16:54.502Z,999.39
2016-05-11T09:17:54.489Z,999.35
2016-05-11T09:18:54.475Z,999.38
2016-05-11T09:19:54.479Z,999.4
2016-05-11T09:20:54.466Z,999.35
2016-05-11T09:21:54.453Z,999.38
2016-05-11T09:22:54.440Z,999.35
2016-05-11T09:23:54.427Z,999.31
2016-05-11T09:24:54.414Z,999.41
2016-05-11T09:25:54.402Z,999.33
2016-05-11T09:26:54.388Z,999.31
2016-05-11T09:27:54.375Z,999.3
2016-05-11T09:28:54.363Z,999.28
2016-05-11T09:29:54.349Z,999.29
2016-05-11T09:30:54.336Z,999.27
2016-05-11T09:31:54.324Z,999.28
2016-05-11T09:32:54.310Z,999.21
2016-05-11T09:33:54.298Z,999.18
2016-05-11T09:34:54.285Z,999.18
2016-05-11T09:35:54.287Z,999.11
2016-05-11T09:36:54.259Z,999.11
2016-05-11T09:37:54.245Z,999.13
2016-05-11T09:38:54.233Z,999.08
2016-05-11T09:39:54.221Z,999.1
2016-05-11T09:40:54.207Z,999.05
2016-05-11T09:41:54.195Z,999.06
2016-05-11T09:42:54.181Z,999.06
2016-05-11T09:43:54.168Z,999.07
2016-05-11T09:44:54.155Z,999.05
2016-05-11T09:45:54.142Z,999
2016-05-11T09:46:54.129Z,999.04
2016-05-11T09:47:54.117Z,999.02
2016-05-11T09:48:54.103Z,999.01
2016-05-11T09:49:54.091Z,999
2016-05-11T09:50:54.078Z,998.99
2016-05-11T09:51:54.065Z,998.96
2016-05-11T09:52:54.052Z,998.93
2016-05-11T09:53:54.039Z,998.97
2016-05-11T09:54:54.025Z,998.92
2016-05-11T09:55:54.013Z,998.92
2016-05-11T09:56:54.000Z,998.93
2016-05-11T09:57:53.972Z,998.96
2016-05-11T09:58:53.958Z,998.94
2016-05-11T09:59:53.946Z,998.94
2016-05-11T10:00:53.932Z,998.87
2016-05-11T10:01:53.935Z,998.9
2016-05-11T10:02:53.907Z,998.89
2016-05-11T10:03:53.893Z,998.88
2016-05-11T10:04:53.882Z,998.92
2016-05-11T10:05:53.868Z,998.86
2016-05-11T10:06:53.871Z,998.88
2016-05-11T10:07:53.843Z,998.84
2016-05-11T10:08:53.829Z,998.83
2016-05-11T10:09:53.816Z,998.87
2016-05-11T10:10:53.804Z,998.81
2016-05-11T10:11:53.790Z,998.8
2016-05-11T10:12:53.778Z,998.77
2016-05-11T10:13:53.765Z,998.75
2016-05-11T10:14:53.751Z,998.76
2016-05-11T10:15:53.739Z,998.77
2016-05-11T10:16:53.726Z,998.79
2016-05-11T10:17:53.712Z,998.74
2016-05-11T10:18:53.701Z,998.76
2016-05-11T10:19:53.687Z,998.75
2016-05-11T10:20:53.675Z,998.78
2016-05-11T10:21:53.645Z,998.75
2016-05-11T10:22:53.632Z,998.72
2016-05-11T10:23:53.620Z,998.81
2016-05-11T10:24:53.622Z,998.82
2016-05-11T10:25:53.594Z,998.76
2016-05-11T10:26:53.581Z,998.8
2016-05-11T10:27:53.568Z,998.79
2016-05-11T10:28:53.571Z,998.79
2016-05-11T10:29:53.558Z,998.75
2016-05-11T10:30:53.669Z,998.78
2016-05-11T10:32:53.564Z,998.79
2016-05-11T10:33:53.566Z,998.79
2016-05-11T10:34:53.538Z,998.74
2016-05-11T10:35:53.524Z,998.77
2016-05-11T10:36:53.512Z,998.71
2016-05-11T10:37:53.498Z,998.74
2016-05-11T10:38:53.502Z,998.73
2016-05-11T10:39:53.473Z,998.74
2016-05-11T10:40:53.460Z,998.65
2016-05-11T10:41:53.447Z,998.63
2016-05-11T10:42:53.435Z,998.55
2016-05-11T10:43:53.421Z,998.59
2016-05-11T10:44:53.407Z,998.6
2016-05-11T10:45:53.989Z,998.66
2016-05-11T10:46:53.382Z,998.59
2016-05-11T10:47:53.369Z,998.57
2016-05-11T10:48:53.356Z,998.59
2016-05-11T10:49:53.343Z,998.61
2016-05-11T10:50:53.331Z,998.64
2016-05-11T10:51:53.317Z,998.62
2016-05-11T10:52:53.304Z,998.6
2016-05-11T10:53:53.292Z,998.65
2016-05-11T10:54:53.279Z,998.55
2016-05-11T10:55:53.266Z,998.59
2016-05-11T10:56:53.253Z,998.54
2016-05-11T10:57:53.239Z,998.53
2016-05-11T10:58:53.227Z,998.62
2016-05-11T10:59:53.214Z,998.55
2016-05-11T11:00:53.451Z,998.59
2016-05-11T11:01:53.188Z,998.5
2016-05-11T11:02:53.175Z,998.52
2016-05-11T11:03:53.147Z,998.59
2016-05-11T11:04:53.150Z,998.53
2016-05-11T11:05:53.121Z,998.56
2016-05-11T11:06:53.124Z,998.48
2016-05-11T11:07:53.111Z,998.46
2016-05-11T11:08:53.097Z,998.49
2016-05-11T11:09:53.069Z,998.42
2016-05-11T11:10:53.071Z,998.43
2016-05-11T11:11:53.060Z,998.43
2016-05-11T11:12:53.046Z,998.39
2016-05-11T11:13:53.032Z,998.41
2016-05-11T11:14:53.021Z,998.42
2016-05-11T11:15:53.007Z,998.39
2016-05-11T11:16:52.993Z,998.39
2016-05-11T11:17:52.981Z,998.34
2016-05-11T11:18:52.954Z,998.46
2016-05-11T11:19:52.956Z,998.45
2016-05-11T11:20:52.942Z,998.37
2016-05-11T11:21:52.930Z,998.44
2016-05-11T11:22:52.901Z,998.41
2016-05-11T11:23:52.888Z,998.45
2016-05-11T11:24:52.890Z,998.55
2016-05-11T11:25:52.862Z,998.51
2016-05-11T11:26:52.850Z,998.48
2016-05-11T11:27:52.852Z,998.44
2016-05-11T11:28:52.839Z,998.49
2016-05-11T11:29:52.811Z,998.52
2016-05-11T11:30:52.797Z,998.46
2016-05-11T11:31:52.784Z,998.56
2016-05-11T11:32:52.787Z,998.52
2016-05-11T11:33:52.759Z,998.48
2016-05-11T11:34:52.746Z,998.46
2016-05-11T11:35:52.733Z,998.47
2016-05-11T11:36:52.719Z,998.47
2016-05-11T11:37:52.707Z,998.52
2016-05-11T11:38:52.710Z,998.46
2016-05-11T11:39:52.680Z,998.45
2016-05-11T11:40:52.668Z,998.53
2016-05-11T11:41:52.655Z,998.49
2016-05-11T11:42:52.643Z,998.43
2016-05-11T11:43:52.645Z,998.56
2016-05-11T11:44:52.616Z,998.53
2016-05-11T11:45:52.604Z,998.5
2016-05-11T11:46:52.591Z,998.51
2016-05-11T11:47:52.577Z,998.42
2016-05-11T11:48:52.565Z,998.41
2016-05-11T11:49:52.552Z,998.32
2016-05-11T11:50:52.539Z,998.28
2016-05-11T11:51:52.525Z,998.32
2016-05-11T11:52:52.513Z,998.25
2016-05-11T11:53:52.500Z,998.26
2016-05-11T11:54:52.487Z,998.35
2016-05-11T11:55:52.473Z,998.25
2016-05-11T11:56:52.462Z,998.34
2016-05-11T11:57:52.448Z,998.23
2016-05-11T11:58:52.419Z,998.22
2016-05-11T11:59:52.407Z,998.17
2016-05-11T12:00:52.551Z,998.19
2016-05-11T12:01:52.397Z,998.16
2016-05-11T12:02:52.367Z,998.24
2016-05-11T12:03:52.355Z,998.18
2016-05-11T12:04:52.342Z,998.17
2016-05-11T12:05:52.329Z,998.17
2016-05-11T12:06:52.316Z,998.19
2016-05-11T12:07:52.303Z,998.16
2016-05-11T12:08:52.291Z,998.17
2016-05-11T12:09:52.277Z,998.23
2016-05-11T12:10:52.264Z,998.17
2016-05-11T12:11:52.252Z,998.16
2016-05-11T12:12:52.239Z,998.21
2016-05-11T12:13:52.226Z,998.14
2016-05-11T12:14:52.213Z,998.18
2016-05-11T12:15:52.199Z,998.13
2016-05-11T12:16:52.187Z,998.16
2016-05-11T12:17:52.158Z,998.19
2016-05-11T12:18:52.160Z,998.17
2016-05-11T12:19:52.132Z,998.06
2016-05-11T12:20:52.120Z,998.09
2016-05-11T12:21:52.123Z,998.12
2016-05-11T12:22:52.093Z,998.09
2016-05-11T12:23:52.096Z,998
2016-05-11T12:24:52.068Z,998.05
2016-05-11T12:25:52.054Z,998.04
2016-05-11T12:26:52.042Z,998.02
2016-05-11T12:27:52.029Z,998